sensor_id;sensor_type;location;lat;lon;timestamp;P1;durP1;ratioP1;P2;durP2;ratioP2
76837;SDS011;65797;47.352;8.164;2022-12-07T00:01:32;19.67;;;11.63;;
76837;SDS011;65797;47.352;8.164;2022-12-07T00:04:00;23.43;;;12.07;;
76837;SDS011;65797;47.352;8.164;2022-12-07T00:06:34;20.20;;;11.37;;
76837;SDS011;65797;47.352;8.164;2022-12-07T00:09:04;19.50;;;11.07;;
76837;SDS011;65797;47.352;8.164;2022-12-07T00:11:32;21.13;;;11.40;;
76837;SDS011;65797;47.352;8.164;2022-12-07T00:13:59;24.03;;;12.27;;
76837;SDS011;65797;47.352;8.164;2022-12-07T00:16:28;19.53;;;11.60;;
76837;SDS011;65797;47.352;8.164;2022-12-07T00:18:55;17.50;;;11.47;;
76837;SDS011;65797;47.352;8.164;2022-12-07T00:21:22;18.90;;;10.70;;
76837;SDS011;65797;47.352;8.164;2022-12-07T00:23:51;18.40;;;11.90;;
76837;SDS011;65797;47.352;8.164;2022-12-07T00:26:19;17.20;;;10.30;;
76837;SDS011;65797;47.352;8.164;2022-12-07T00:28:51;19.77;;;11.53;;
76837;SDS011;65797;47.352;8.164;2022-12-07T00:31:19;19.03;;;12.30;;
76837;SDS011;65797;47.352;8.164;2022-12-07T00:33:46;20.77;;;11.20;;
76837;SDS011;65797;47.352;8.164;2022-12-07T00:36:14;21.10;;;11.93;;
76837;SDS011;65797;47.352;8.164;2022-12-07T00:38:42;19.50;;;11.50;;
76837;SDS011;65797;47.352;8.164;2022-12-07T00:41:11;20.80;;;12.00;;
76837;SDS011;65797;47.352;8.164;2022-12-07T00:43:48;20.70;;;12.20;;
76837;SDS011;65797;47.352;8.164;2022-12-07T00:46:15;20.30;;;11.70;;
76837;SDS011;65797;47.352;8.164;2022-12-07T00:48:41;20.70;;;12.10;;
76837;SDS011;65797;47.352;8.164;2022-12-07T00:51:07;20.07;;;11.73;;
76837;SDS011;65797;47.352;8.164;2022-12-07T00:53:35;19.23;;;11.53;;
76837;SDS011;65797;47.352;8.164;2022-12-07T00:58:33;21.20;;;11.70;;
76837;SDS011;65797;47.352;8.164;2022-12-07T01:00:59;19.90;;;11.70;;
76837;SDS011;65797;47.352;8.164;2022-12-07T01:03:27;23.23;;;11.53;;
76837;SDS011;65797;47.352;8.164;2022-12-07T01:05:53;21.10;;;12.27;;
76837;SDS011;65797;47.352;8.164;2022-12-07T01:08:20;24.17;;;12.47;;
76837;SDS011;65797;47.352;8.164;2022-12-07T01:10:47;19.17;;;11.60;;
76837;SDS011;65797;47.352;8.164;2022-12-07T01:13:13;19.33;;;11.47;;
76837;SDS011;65797;47.352;8.164;2022-12-07T01:15:39;20.80;;;11.10;;
76837;SDS011;65797;47.352;8.164;2022-12-07T01:18:09;25.13;;;11.87;;
76837;SDS011;65797;47.352;8.164;2022-12-07T01:20:35;20.23;;;11.20;;
76837;SDS011;65797;47.352;8.164;2022-12-07T01:23:01;22.50;;;11.73;;
76837;SDS011;65797;47.352;8.164;2022-12-07T01:25:27;24.50;;;12.30;;
76837;SDS011;65797;47.352;8.164;2022-12-07T01:27:53;24.97;;;13.17;;
76837;SDS011;65797;47.352;8.164;2022-12-07T01:30:19;24.90;;;11.60;;
76837;SDS011;65797;47.352;8.164;2022-12-07T01:32:44;25.00;;;13.00;;
76837;SDS011;65797;47.352;8.164;2022-12-07T01:35:10;21.50;;;12.80;;
76837;SDS011;65797;47.352;8.164;2022-12-07T01:37:36;22.60;;;12.10;;
76837;SDS011;65797;47.352;8.164;2022-12-07T01:40:07;21.67;;;12.70;;
76837;SDS011;65797;47.352;8.164;2022-12-07T01:42:33;23.03;;;12.93;;
76837;SDS011;65797;47.352;8.164;2022-12-07T01:47:44;24.07;;;12.30;;
76837;SDS011;65797;47.352;8.164;2022-12-07T01:50:14;22.57;;;12.10;;
76837;SDS011;65797;47.352;8.164;2022-12-07T01:52:40;20.43;;;11.77;;
76837;SDS011;65797;47.352;8.164;2022-12-07T01:55:09;21.17;;;11.50;;
76837;SDS011;65797;47.352;8.164;2022-12-07T01:57:40;23.83;;;12.67;;
76837;SDS011;65797;47.352;8.164;2022-12-07T02:00:12;22.67;;;11.63;;
76837;SDS011;65797;47.352;8.164;2022-12-07T02:02:53;20.40;;;11.53;;
76837;SDS011;65797;47.352;8.164;2022-12-07T02:05:25;18.57;;;12.13;;
76837;SDS011;65797;47.352;8.164;2022-12-07T02:07:52;28.73;;;11.87;;
76837;SDS011;65797;47.352;8.164;2022-12-07T02:10:24;19.03;;;11.30;;
76837;SDS011;65797;47.352;8.164;2022-12-07T02:12:53;18.23;;;10.97;;
76837;SDS011;65797;47.352;8.164;2022-12-07T02:15:26;27.73;;;12.83;;
76837;SDS011;65797;47.352;8.164;2022-12-07T02:20:55;21.50;;;12.10;;
76837;SDS011;65797;47.352;8.164;2022-12-07T02:24:31;22.83;;;11.57;;
76837;SDS011;65797;47.352;8.164;2022-12-07T02:30:03;22.20;;;11.87;;
76837;SDS011;65797;47.352;8.164;2022-12-07T02:38:09;26.40;;;11.80;;
76837;SDS011;65797;47.352;8.164;2022-12-07T02:40:57;25.47;;;12.87;;
76837;SDS011;65797;47.352;8.164;2022-12-07T02:43:38;23.73;;;12.17;;
76837;SDS011;65797;47.352;8.164;2022-12-07T02:46:20;22.23;;;13.00;;
76837;SDS011;65797;47.352;8.164;2022-12-07T02:48:48;24.20;;;13.33;;
76837;SDS011;65797;47.352;8.164;2022-12-07T02:51:17;24.00;;;12.30;;
76837;SDS011;65797;47.352;8.164;2022-12-07T02:53:43;23.63;;;11.83;;
76837;SDS011;65797;47.352;8.164;2022-12-07T03:15:20;21.40;;;12.07;;
76837;SDS011;65797;47.352;8.164;2022-12-07T03:17:53;20.37;;;11.40;;
76837;SDS011;65797;47.352;8.164;2022-12-07T03:20:22;22.83;;;11.50;;
76837;SDS011;65797;47.352;8.164;2022-12-07T03:22:51;22.13;;;11.40;;
76837;SDS011;65797;47.352;8.164;2022-12-07T03:25:19;21.47;;;12.03;;
76837;SDS011;65797;47.352;8.164;2022-12-07T03:27:58;17.17;;;10.93;;
76837;SDS011;65797;47.352;8.164;2022-12-07T03:31:16;19.57;;;11.77;;
76837;SDS011;65797;47.352;8.164;2022-12-07T03:36:05;19.33;;;12.03;;
76837;SDS011;65797;47.352;8.164;2022-12-07T03:38:46;22.43;;;12.47;;
76837;SDS011;65797;47.352;8.164;2022-12-07T03:41:29;22.70;;;12.50;;
76837;SDS011;65797;47.352;8.164;2022-12-07T03:43:57;20.80;;;11.27;;
76837;SDS011;65797;47.352;8.164;2022-12-07T03:51:49;22.23;;;12.30;;
76837;SDS011;65797;47.352;8.164;2022-12-07T03:57:04;21.33;;;12.57;;
76837;SDS011;65797;47.352;8.164;2022-12-07T03:59:31;22.20;;;12.23;;
76837;SDS011;65797;47.352;8.164;2022-12-07T04:02:02;23.77;;;12.63;;
76837;SDS011;65797;47.352;8.164;2022-12-07T04:04:29;21.87;;;12.50;;
76837;SDS011;65797;47.352;8.164;2022-12-07T04:06:55;21.63;;;11.80;;
76837;SDS011;65797;47.352;8.164;2022-12-07T04:09:21;23.40;;;12.20;;
76837;SDS011;65797;47.352;8.164;2022-12-07T04:11:47;20.47;;;11.73;;
76837;SDS011;65797;47.352;8.164;2022-12-07T04:14:13;19.60;;;11.23;;
76837;SDS011;65797;47.352;8.164;2022-12-07T04:16:45;20.03;;;11.27;;
76837;SDS011;65797;47.352;8.164;2022-12-07T04:19:11;21.23;;;12.53;;
76837;SDS011;65797;47.352;8.164;2022-12-07T04:21:37;19.77;;;11.53;;
76837;SDS011;65797;47.352;8.164;2022-12-07T04:24:04;23.63;;;11.37;;
76837;SDS011;65797;47.352;8.164;2022-12-07T04:26:29;22.50;;;11.93;;
76837;SDS011;65797;47.352;8.164;2022-12-07T04:28:55;20.33;;;11.67;;
76837;SDS011;65797;47.352;8.164;2022-12-07T04:31:21;21.73;;;12.37;;
76837;SDS011;65797;47.352;8.164;2022-12-07T04:33:46;23.50;;;12.27;;
76837;SDS011;65797;47.352;8.164;2022-12-07T04:36:12;22.80;;;13.03;;
76837;SDS011;65797;47.352;8.164;2022-12-07T04:38:38;20.03;;;11.67;;
76837;SDS011;65797;47.352;8.164;2022-12-07T04:41:04;22.97;;;12.10;;
76837;SDS011;65797;47.352;8.164;2022-12-07T04:43:30;23.63;;;12.60;;
76837;SDS011;65797;47.352;8.164;2022-12-07T04:45:56;21.33;;;12.70;;
76837;SDS011;65797;47.352;8.164;2022-12-07T04:48:22;23.57;;;13.00;;
76837;SDS011;65797;47.352;8.164;2022-12-07T04:50:48;21.97;;;11.63;;
76837;SDS011;65797;47.352;8.164;2022-12-07T04:53:16;20.70;;;12.90;;
76837;SDS011;65797;47.352;8.164;2022-12-07T04:55:43;24.80;;;12.63;;
76837;SDS011;65797;47.352;8.164;2022-12-07T04:58:09;21.30;;;11.90;;
76837;SDS011;65797;47.352;8.164;2022-12-07T05:00:35;21.50;;;11.90;;
76837;SDS011;65797;47.352;8.164;2022-12-07T05:03:00;19.60;;;12.83;;
76837;SDS011;65797;47.352;8.164;2022-12-07T05:05:26;20.63;;;11.97;;
76837;SDS011;65797;47.352;8.164;2022-12-07T05:07:51;21.27;;;11.57;;
76837;SDS011;65797;47.352;8.164;2022-12-07T05:10:17;21.97;;;12.40;;
76837;SDS011;65797;47.352;8.164;2022-12-07T05:12:43;21.53;;;11.97;;
76837;SDS011;65797;47.352;8.164;2022-12-07T05:15:09;20.23;;;11.60;;
76837;SDS011;65797;47.352;8.164;2022-12-07T05:17:34;22.83;;;12.83;;
76837;SDS011;65797;47.352;8.164;2022-12-07T05:20:00;18.93;;;11.30;;
76837;SDS011;65797;47.352;8.164;2022-12-07T05:22:26;25.60;;;13.57;;
76837;SDS011;65797;47.352;8.164;2022-12-07T05:24:53;25.20;;;13.20;;
76837;SDS011;65797;47.352;8.164;2022-12-07T05:27:19;21.50;;;12.60;;
76837;SDS011;65797;47.352;8.164;2022-12-07T05:29:45;37.63;;;19.67;;
76837;SDS011;65797;47.352;8.164;2022-12-07T05:32:11;29.30;;;16.60;;
76837;SDS011;65797;47.352;8.164;2022-12-07T05:34:37;30.50;;;16.50;;
76837;SDS011;65797;47.352;8.164;2022-12-07T05:37:02;24.93;;;15.03;;
76837;SDS011;65797;47.352;8.164;2022-12-07T05:39:28;25.20;;;14.00;;
76837;SDS011;65797;47.352;8.164;2022-12-07T05:41:54;28.70;;;15.30;;
76837;SDS011;65797;47.352;8.164;2022-12-07T05:44:38;26.03;;;14.63;;
76837;SDS011;65797;47.352;8.164;2022-12-07T05:47:04;22.43;;;12.80;;
76837;SDS011;65797;47.352;8.164;2022-12-07T05:49:30;21.70;;;12.07;;
76837;SDS011;65797;47.352;8.164;2022-12-07T05:51:55;24.87;;;13.63;;
76837;SDS011;65797;47.352;8.164;2022-12-07T05:54:21;22.60;;;13.17;;
76837;SDS011;65797;47.352;8.164;2022-12-07T05:56:47;22.13;;;12.17;;
76837;SDS011;65797;47.352;8.164;2022-12-07T05:59:13;25.30;;;13.33;;
76837;SDS011;65797;47.352;8.164;2022-12-07T06:01:48;24.77;;;12.50;;
76837;SDS011;65797;47.352;8.164;2022-12-07T06:04:35;27.83;;;14.20;;
76837;SDS011;65797;47.352;8.164;2022-12-07T06:07:03;25.90;;;13.43;;
76837;SDS011;65797;47.352;8.164;2022-12-07T06:09:29;22.70;;;12.73;;
76837;SDS011;65797;47.352;8.164;2022-12-07T06:11:55;24.90;;;13.70;;
76837;SDS011;65797;47.352;8.164;2022-12-07T06:14:40;28.00;;;13.27;;
76837;SDS011;65797;47.352;8.164;2022-12-07T06:17:07;28.87;;;14.63;;
76837;SDS011;65797;47.352;8.164;2022-12-07T06:19:32;32.63;;;14.00;;
76837;SDS011;65797;47.352;8.164;2022-12-07T06:21:58;26.80;;;14.20;;
76837;SDS011;65797;47.352;8.164;2022-12-07T06:24:24;26.80;;;13.70;;
76837;SDS011;65797;47.352;8.164;2022-12-07T06:26:50;24.93;;;12.83;;
76837;SDS011;65797;47.352;8.164;2022-12-07T06:29:16;26.67;;;14.07;;
76837;SDS011;65797;47.352;8.164;2022-12-07T06:31:42;25.90;;;13.10;;
76837;SDS011;65797;47.352;8.164;2022-12-07T06:34:12;32.23;;;14.60;;
76837;SDS011;65797;47.352;8.164;2022-12-07T06:36:39;34.73;;;14.80;;
76837;SDS011;65797;47.352;8.164;2022-12-07T06:39:05;28.37;;;14.00;;
76837;SDS011;65797;47.352;8.164;2022-12-07T06:41:32;29.50;;;15.40;;
76837;SDS011;65797;47.352;8.164;2022-12-07T06:43:58;30.63;;;14.80;;
76837;SDS011;65797;47.352;8.164;2022-12-07T06:46:24;31.10;;;15.00;;
76837;SDS011;65797;47.352;8.164;2022-12-07T06:48:50;34.60;;;15.13;;
76837;SDS011;65797;47.352;8.164;2022-12-07T06:51:16;28.63;;;14.63;;
76837;SDS011;65797;47.352;8.164;2022-12-07T06:53:42;29.73;;;14.23;;
76837;SDS011;65797;47.352;8.164;2022-12-07T06:56:07;38.20;;;16.07;;
76837;SDS011;65797;47.352;8.164;2022-12-07T06:58:33;27.70;;;14.80;;
76837;SDS011;65797;47.352;8.164;2022-12-07T07:00:59;27.87;;;13.97;;
76837;SDS011;65797;47.352;8.164;2022-12-07T07:03:24;29.70;;;14.63;;
76837;SDS011;65797;47.352;8.164;2022-12-07T07:05:50;28.63;;;14.03;;
76837;SDS011;65797;47.352;8.164;2022-12-07T07:08:16;31.63;;;14.70;;
76837;SDS011;65797;47.352;8.164;2022-12-07T07:10:41;27.47;;;14.30;;
76837;SDS011;65797;47.352;8.164;2022-12-07T07:13:07;30.33;;;13.73;;
76837;SDS011;65797;47.352;8.164;2022-12-07T07:15:33;38.20;;;15.60;;
76837;SDS011;65797;47.352;8.164;2022-12-07T07:18:00;29.43;;;14.60;;
76837;SDS011;65797;47.352;8.164;2022-12-07T07:20:26;32.40;;;16.43;;
76837;SDS011;65797;47.352;8.164;2022-12-07T07:22:55;32.80;;;14.50;;
76837;SDS011;65797;47.352;8.164;2022-12-07T07:25:21;29.03;;;14.47;;
76837;SDS011;65797;47.352;8.164;2022-12-07T07:27:47;28.47;;;13.93;;
76837;SDS011;65797;47.352;8.164;2022-12-07T07:30:13;29.73;;;13.53;;
76837;SDS011;65797;47.352;8.164;2022-12-07T07:32:39;29.40;;;14.83;;
76837;SDS011;65797;47.352;8.164;2022-12-07T07:35:05;28.70;;;15.03;;
76837;SDS011;65797;47.352;8.164;2022-12-07T07:37:31;29.33;;;15.57;;
76837;SDS011;65797;47.352;8.164;2022-12-07T07:39:56;29.27;;;14.80;;
76837;SDS011;65797;47.352;8.164;2022-12-07T07:42:22;31.40;;;15.07;;
76837;SDS011;65797;47.352;8.164;2022-12-07T07:44:48;33.23;;;15.40;;
76837;SDS011;65797;47.352;8.164;2022-12-07T07:47:13;32.63;;;15.10;;
76837;SDS011;65797;47.352;8.164;2022-12-07T07:49:39;31.53;;;15.37;;
76837;SDS011;65797;47.352;8.164;2022-12-07T07:52:05;32.27;;;14.30;;
76837;SDS011;65797;47.352;8.164;2022-12-07T07:54:31;30.23;;;13.80;;
76837;SDS011;65797;47.352;8.164;2022-12-07T07:56:57;36.73;;;16.90;;
76837;SDS011;65797;47.352;8.164;2022-12-07T07:59:22;38.53;;;16.13;;
76837;SDS011;65797;47.352;8.164;2022-12-07T08:01:49;31.37;;;15.57;;
76837;SDS011;65797;47.352;8.164;2022-12-07T08:04:15;30.90;;;16.33;;
76837;SDS011;65797;47.352;8.164;2022-12-07T08:06:41;45.27;;;14.63;;
76837;SDS011;65797;47.352;8.164;2022-12-07T08:09:07;32.10;;;15.00;;
76837;SDS011;65797;47.352;8.164;2022-12-07T08:11:33;37.10;;;15.80;;
76837;SDS011;65797;47.352;8.164;2022-12-07T08:13:59;33.13;;;14.97;;
76837;SDS011;65797;47.352;8.164;2022-12-07T08:16:26;31.60;;;15.20;;
76837;SDS011;65797;47.352;8.164;2022-12-07T08:18:52;35.13;;;16.40;;
76837;SDS011;65797;47.352;8.164;2022-12-07T08:21:18;29.20;;;15.07;;
76837;SDS011;65797;47.352;8.164;2022-12-07T08:23:43;30.07;;;14.80;;
76837;SDS011;65797;47.352;8.164;2022-12-07T08:26:10;32.37;;;14.40;;
76837;SDS011;65797;47.352;8.164;2022-12-07T08:28:38;33.80;;;15.23;;
76837;SDS011;65797;47.352;8.164;2022-12-07T08:31:06;30.00;;;14.87;;
76837;SDS011;65797;47.352;8.164;2022-12-07T08:33:33;33.77;;;16.07;;
76837;SDS011;65797;47.352;8.164;2022-12-07T08:36:06;36.87;;;15.93;;
76837;SDS011;65797;47.352;8.164;2022-12-07T08:38:35;36.03;;;15.63;;
76837;SDS011;65797;47.352;8.164;2022-12-07T08:41:01;32.57;;;15.70;;
76837;SDS011;65797;47.352;8.164;2022-12-07T08:43:27;40.57;;;16.03;;
76837;SDS011;65797;47.352;8.164;2022-12-07T08:46:09;37.97;;;16.10;;
76837;SDS011;65797;47.352;8.164;2022-12-07T08:48:48;35.67;;;16.30;;
76837;SDS011;65797;47.352;8.164;2022-12-07T08:51:18;32.53;;;15.90;;
76837;SDS011;65797;47.352;8.164;2022-12-07T08:53:44;36.20;;;16.23;;
76837;SDS011;65797;47.352;8.164;2022-12-07T08:56:10;35.30;;;16.20;;
76837;SDS011;65797;47.352;8.164;2022-12-07T08:58:37;35.17;;;15.07;;
76837;SDS011;65797;47.352;8.164;2022-12-07T09:01:04;33.23;;;15.03;;
76837;SDS011;65797;47.352;8.164;2022-12-07T09:03:30;31.40;;;14.37;;
76837;SDS011;65797;47.352;8.164;2022-12-07T09:05:56;31.90;;;15.80;;
76837;SDS011;65797;47.352;8.164;2022-12-07T09:08:23;40.87;;;18.67;;
76837;SDS011;65797;47.352;8.164;2022-12-07T09:10:54;32.13;;;15.53;;
76837;SDS011;65797;47.352;8.164;2022-12-07T09:13:19;38.30;;;16.90;;
76837;SDS011;65797;47.352;8.164;2022-12-07T09:15:45;32.43;;;15.33;;
76837;SDS011;65797;47.352;8.164;2022-12-07T09:18:11;32.83;;;15.70;;
76837;SDS011;65797;47.352;8.164;2022-12-07T09:20:36;32.93;;;16.00;;
76837;SDS011;65797;47.352;8.164;2022-12-07T09:23:02;38.77;;;16.00;;
76837;SDS011;65797;47.352;8.164;2022-12-07T09:25:30;35.03;;;16.30;;
76837;SDS011;65797;47.352;8.164;2022-12-07T09:27:56;34.60;;;16.80;;
76837;SDS011;65797;47.352;8.164;2022-12-07T09:30:22;41.83;;;17.93;;
76837;SDS011;65797;47.352;8.164;2022-12-07T09:32:48;39.03;;;19.53;;
76837;SDS011;65797;47.352;8.164;2022-12-07T09:35:14;37.43;;;17.77;;
76837;SDS011;65797;47.352;8.164;2022-12-07T09:37:40;38.93;;;20.27;;
76837;SDS011;65797;47.352;8.164;2022-12-07T09:40:05;64.90;;;30.63;;
76837;SDS011;65797;47.352;8.164;2022-12-07T09:42:33;47.83;;;21.73;;
76837;SDS011;65797;47.352;8.164;2022-12-07T09:45:05;44.33;;;20.47;;
76837;SDS011;65797;47.352;8.164;2022-12-07T09:47:33;36.93;;;17.47;;
76837;SDS011;65797;47.352;8.164;2022-12-07T09:50:05;37.57;;;17.90;;
76837;SDS011;65797;47.352;8.164;2022-12-07T09:52:51;39.40;;;18.43;;
76837;SDS011;65797;47.352;8.164;2022-12-07T09:55:30;35.17;;;17.70;;
76837;SDS011;65797;47.352;8.164;2022-12-07T09:57:56;36.43;;;16.10;;
76837;SDS011;65797;47.352;8.164;2022-12-07T10:00:23;41.53;;;18.77;;
76837;SDS011;65797;47.352;8.164;2022-12-07T10:02:55;47.50;;;18.63;;
76837;SDS011;65797;47.352;8.164;2022-12-07T10:05:29;38.73;;;16.80;;
76837;SDS011;65797;47.352;8.164;2022-12-07T10:07:59;39.40;;;17.97;;
76837;SDS011;65797;47.352;8.164;2022-12-07T10:10:26;38.73;;;17.20;;
76837;SDS011;65797;47.352;8.164;2022-12-07T10:18:18;33.30;;;16.43;;
76837;SDS011;65797;47.352;8.164;2022-12-07T10:23:34;40.93;;;18.70;;
76837;SDS011;65797;47.352;8.164;2022-12-07T10:27:01;36.97;;;16.30;;
76837;SDS011;65797;47.352;8.164;2022-12-07T10:29:13;33.30;;;16.67;;
76837;SDS011;65797;47.352;8.164;2022-12-07T10:31:39;34.10;;;16.87;;
76837;SDS011;65797;47.352;8.164;2022-12-07T10:34:13;38.50;;;18.20;;
76837;SDS011;65797;47.352;8.164;2022-12-07T10:36:52;40.43;;;18.80;;
76837;SDS011;65797;47.352;8.164;2022-12-07T10:39:20;31.67;;;15.73;;
76837;SDS011;65797;47.352;8.164;2022-12-07T10:42:02;33.70;;;16.23;;
76837;SDS011;65797;47.352;8.164;2022-12-07T10:44:32;38.50;;;16.90;;
76837;SDS011;65797;47.352;8.164;2022-12-07T10:47:09;34.40;;;16.43;;
76837;SDS011;65797;47.352;8.164;2022-12-07T10:50:12;32.80;;;17.10;;
76837;SDS011;65797;47.352;8.164;2022-12-07T11:00:29;31.77;;;15.50;;
76837;SDS011;65797;47.352;8.164;2022-12-07T11:05:51;30.37;;;15.13;;
76837;SDS011;65797;47.352;8.164;2022-12-07T11:11:13;29.73;;;14.57;;
76837;SDS011;65797;47.352;8.164;2022-12-07T11:19:34;28.60;;;13.67;;
76837;SDS011;65797;47.352;8.164;2022-12-07T11:22:13;27.57;;;14.30;;
76837;SDS011;65797;47.352;8.164;2022-12-07T11:24:50;33.57;;;14.90;;
76837;SDS011;65797;47.352;8.164;2022-12-07T11:32:59;32.87;;;16.00;;
76837;SDS011;65797;47.352;8.164;2022-12-07T11:35:45;32.60;;;15.67;;
76837;SDS011;65797;47.352;8.164;2022-12-07T11:41:19;32.87;;;15.27;;
76837;SDS011;65797;47.352;8.164;2022-12-07T11:46:47;29.37;;;13.77;;
76837;SDS011;65797;47.352;8.164;2022-12-07T11:49:23;26.60;;;14.83;;
76837;SDS011;65797;47.352;8.164;2022-12-07T11:52:22;25.30;;;13.17;;
76837;SDS011;65797;47.352;8.164;2022-12-07T11:54:54;24.63;;;12.13;;
76837;SDS011;65797;47.352;8.164;2022-12-07T11:57:37;26.40;;;13.13;;
76837;SDS011;65797;47.352;8.164;2022-12-07T12:00:12;24.00;;;12.70;;
76837;SDS011;65797;47.352;8.164;2022-12-07T12:05:38;21.20;;;11.87;;
76837;SDS011;65797;47.352;8.164;2022-12-07T12:19:04;23.23;;;12.13;;
76837;SDS011;65797;47.352;8.164;2022-12-07T12:21:46;23.20;;;11.57;;
76837;SDS011;65797;47.352;8.164;2022-12-07T12:24:15;20.70;;;10.90;;
76837;SDS011;65797;47.352;8.164;2022-12-07T12:29:50;20.50;;;11.47;;
76837;SDS011;65797;47.352;8.164;2022-12-07T12:32:22;21.60;;;10.40;;
76837;SDS011;65797;47.352;8.164;2022-12-07T12:34:59;14.43;;;8.80;;
76837;SDS011;65797;47.352;8.164;2022-12-07T12:42:44;21.33;;;10.53;;
76837;SDS011;65797;47.352;8.164;2022-12-07T12:48:02;21.37;;;9.60;;
76837;SDS011;65797;47.352;8.164;2022-12-07T12:50:46;19.87;;;11.03;;
76837;SDS011;65797;47.352;8.164;2022-12-07T12:53:19;20.40;;;10.90;;
76837;SDS011;65797;47.352;8.164;2022-12-07T12:55:54;20.27;;;11.00;;
76837;SDS011;65797;47.352;8.164;2022-12-07T12:58:48;18.60;;;9.87;;
76837;SDS011;65797;47.352;8.164;2022-12-07T13:01:42;18.70;;;11.10;;
76837;SDS011;65797;47.352;8.164;2022-12-07T13:04:21;18.43;;;11.30;;
76837;SDS011;65797;47.352;8.164;2022-12-07T13:06:50;20.50;;;10.57;;
76837;SDS011;65797;47.352;8.164;2022-12-07T13:09:20;20.23;;;10.27;;
76837;SDS011;65797;47.352;8.164;2022-12-07T13:12:13;19.37;;;10.73;;
76837;SDS011;65797;47.352;8.164;2022-12-07T13:14:57;21.67;;;10.20;;
76837;SDS011;65797;47.352;8.164;2022-12-07T13:19:59;18.87;;;11.00;;
76837;SDS011;65797;47.352;8.164;2022-12-07T13:27:50;18.00;;;9.87;;
76837;SDS011;65797;47.352;8.164;2022-12-07T13:30:43;22.47;;;11.00;;
76837;SDS011;65797;47.352;8.164;2022-12-07T13:33:12;18.50;;;10.47;;
76837;SDS011;65797;47.352;8.164;2022-12-07T13:35:40;22.27;;;10.90;;
76837;SDS011;65797;47.352;8.164;2022-12-07T13:38:14;16.13;;;9.90;;
76837;SDS011;65797;47.352;8.164;2022-12-07T13:41:00;16.07;;;9.80;;
76837;SDS011;65797;47.352;8.164;2022-12-07T13:43:30;17.90;;;10.10;;
76837;SDS011;65797;47.352;8.164;2022-12-07T13:45:56;20.17;;;10.53;;
76837;SDS011;65797;47.352;8.164;2022-12-07T13:48:33;14.47;;;9.10;;
76837;SDS011;65797;47.352;8.164;2022-12-07T13:51:21;19.87;;;10.93;;
76837;SDS011;65797;47.352;8.164;2022-12-07T13:53:54;18.80;;;10.30;;
76837;SDS011;65797;47.352;8.164;2022-12-07T13:56:25;19.13;;;10.10;;
76837;SDS011;65797;47.352;8.164;2022-12-07T13:58:56;16.07;;;9.63;;
76837;SDS011;65797;47.352;8.164;2022-12-07T14:01:22;18.93;;;9.50;;
76837;SDS011;65797;47.352;8.164;2022-12-07T14:03:49;16.67;;;9.63;;
76837;SDS011;65797;47.352;8.164;2022-12-07T14:06:21;18.37;;;9.50;;
76837;SDS011;65797;47.352;8.164;2022-12-07T14:11:52;16.07;;;10.30;;
76837;SDS011;65797;47.352;8.164;2022-12-07T14:14:23;17.47;;;9.20;;
76837;SDS011;65797;47.352;8.164;2022-12-07T14:19:48;15.30;;;8.73;;
76837;SDS011;65797;47.352;8.164;2022-12-07T14:22:42;17.33;;;9.20;;
76837;SDS011;65797;47.352;8.164;2022-12-07T14:27:39;17.50;;;9.60;;
76837;SDS011;65797;47.352;8.164;2022-12-07T14:30:15;17.07;;;9.10;;
76837;SDS011;65797;47.352;8.164;2022-12-07T14:32:42;15.10;;;8.93;;
76837;SDS011;65797;47.352;8.164;2022-12-07T14:35:13;15.30;;;8.70;;
76837;SDS011;65797;47.352;8.164;2022-12-07T14:37:42;16.33;;;9.40;;
76837;SDS011;65797;47.352;8.164;2022-12-07T14:40:12;15.60;;;9.00;;
76837;SDS011;65797;47.352;8.164;2022-12-07T14:42:46;13.83;;;8.40;;
76837;SDS011;65797;47.352;8.164;2022-12-07T14:45:18;15.60;;;9.57;;
76837;SDS011;65797;47.352;8.164;2022-12-07T14:47:46;14.70;;;8.27;;
76837;SDS011;65797;47.352;8.164;2022-12-07T14:50:13;12.60;;;7.70;;
76837;SDS011;65797;47.352;8.164;2022-12-07T14:52:40;17.20;;;9.40;;
76837;SDS011;65797;47.352;8.164;2022-12-07T14:55:18;16.70;;;9.27;;
76837;SDS011;65797;47.352;8.164;2022-12-07T14:57:50;16.37;;;8.43;;
76837;SDS011;65797;47.352;8.164;2022-12-07T15:00:17;15.87;;;9.97;;
76837;SDS011;65797;47.352;8.164;2022-12-07T15:02:45;16.17;;;9.13;;
76837;SDS011;65797;47.352;8.164;2022-12-07T15:05:11;15.43;;;8.97;;
76837;SDS011;65797;47.352;8.164;2022-12-07T15:07:38;16.73;;;9.17;;
76837;SDS011;65797;47.352;8.164;2022-12-07T15:10:04;14.40;;;7.83;;
76837;SDS011;65797;47.352;8.164;2022-12-07T15:12:31;20.47;;;10.77;;
76837;SDS011;65797;47.352;8.164;2022-12-07T15:14:57;16.37;;;9.80;;
76837;SDS011;65797;47.352;8.164;2022-12-07T15:17:22;20.70;;;9.50;;
76837;SDS011;65797;47.352;8.164;2022-12-07T15:19:48;17.40;;;9.40;;
76837;SDS011;65797;47.352;8.164;2022-12-07T15:22:14;22.03;;;9.77;;
76837;SDS011;65797;47.352;8.164;2022-12-07T15:24:39;18.47;;;9.47;;
76837;SDS011;65797;47.352;8.164;2022-12-07T15:27:05;23.20;;;10.60;;
76837;SDS011;65797;47.352;8.164;2022-12-07T15:29:31;18.43;;;9.63;;
76837;SDS011;65797;47.352;8.164;2022-12-07T15:31:56;17.53;;;9.43;;
76837;SDS011;65797;47.352;8.164;2022-12-07T15:34:25;20.57;;;9.53;;
76837;SDS011;65797;47.352;8.164;2022-12-07T15:36:53;21.77;;;11.73;;
76837;SDS011;65797;47.352;8.164;2022-12-07T15:39:19;22.40;;;11.87;;
76837;SDS011;65797;47.352;8.164;2022-12-07T15:41:44;28.60;;;11.20;;
76837;SDS011;65797;47.352;8.164;2022-12-07T15:44:14;19.90;;;10.60;;
76837;SDS011;65797;47.352;8.164;2022-12-07T15:46:58;18.00;;;9.50;;
76837;SDS011;65797;47.352;8.164;2022-12-07T15:49:24;21.80;;;10.03;;
76837;SDS011;65797;47.352;8.164;2022-12-07T15:51:50;20.63;;;10.60;;
76837;SDS011;65797;47.352;8.164;2022-12-07T15:54:26;20.30;;;10.40;;
76837;SDS011;65797;47.352;8.164;2022-12-07T15:56:52;17.93;;;10.50;;
76837;SDS011;65797;47.352;8.164;2022-12-07T15:59:19;17.63;;;10.50;;
76837;SDS011;65797;47.352;8.164;2022-12-07T16:01:44;18.97;;;10.50;;
76837;SDS011;65797;47.352;8.164;2022-12-07T16:04:10;22.17;;;9.50;;
76837;SDS011;65797;47.352;8.164;2022-12-07T16:06:36;17.13;;;9.10;;
76837;SDS011;65797;47.352;8.164;2022-12-07T16:09:02;19.57;;;9.67;;
76837;SDS011;65797;47.352;8.164;2022-12-07T16:11:29;17.20;;;9.80;;
76837;SDS011;65797;47.352;8.164;2022-12-07T16:13:55;23.17;;;10.90;;
76837;SDS011;65797;47.352;8.164;2022-12-07T16:16:20;15.17;;;8.03;;
76837;SDS011;65797;47.352;8.164;2022-12-07T16:18:47;16.63;;;7.43;;
76837;SDS011;65797;47.352;8.164;2022-12-07T16:21:14;11.67;;;7.83;;
76837;SDS011;65797;47.352;8.164;2022-12-07T16:23:41;12.30;;;7.70;;
76837;SDS011;65797;47.352;8.164;2022-12-07T16:26:07;12.37;;;7.40;;
76837;SDS011;65797;47.352;8.164;2022-12-07T16:28:36;16.20;;;7.70;;
76837;SDS011;65797;47.352;8.164;2022-12-07T16:31:05;17.30;;;7.70;;
76837;SDS011;65797;47.352;8.164;2022-12-07T16:33:36;17.20;;;7.80;;
76837;SDS011;65797;47.352;8.164;2022-12-07T16:36:02;13.70;;;8.03;;
76837;SDS011;65797;47.352;8.164;2022-12-07T16:38:29;10.20;;;6.97;;
76837;SDS011;65797;47.352;8.164;2022-12-07T16:40:55;12.33;;;7.17;;
76837;SDS011;65797;47.352;8.164;2022-12-07T16:43:21;11.40;;;6.97;;
76837;SDS011;65797;47.352;8.164;2022-12-07T16:45:47;15.57;;;7.73;;